Dalhart Municipal Airport
KDHT : now visible

Airfield :











YOU CAN JOIN US ON...

 
LOGIN :

Register | Disclaimer

   EN    FR    IT 

 









Legend :    VFR   Marginal VFR   IFR   Intensive IFR   Very Intensive IFR
Visi :
Ceiling :
>= 8 km
>= 3000ft
5 to 8 km
1000 to 3000 ft
1500m to 5 km
500 to 1000 ft
800 to 1500m
200 to 500 ft
< 800m
< 200 ft
Symbols :   Thunderstorms  Fog  Heavy snow  Heavy precipitations  Wind > 20 kt






- Airport Elevation : 3991 ft


KDHT - Dalhart Municipal

CURRENT METAR :
  • 041653Z AUTO 17013G23KT 10SM CLR 28/16 A3011 RMK AO2 SLP132 T02830161

EXPIRED METARs :
  • 041553Z AUTO 18014KT 10SM CLR 26/16 A3012 RMK AO2 SLP135 T02610161
  • 041453Z AUTO 18012KT 10SM CLR 24/16 A3012 RMK AO2 SLP138 T02440156 53007

TAF KDHT
Valid from the 04 at 12:00 until the 05 at 12:00 UTC


041138Z 0412/0512 17014KT P6SM FEW250
FM050000 14012KT P6SM BKN100
PROB30 0500/0506 4SM TSRA BKN050CB
FM050600 11011KT P6SM BKN100
KZAB FIR / North America



MET'MAP, your aeronautical weather chart ! - Copyright ORBIFLY December 2007 - Disclaimer

ORBIFLY MET'MAP TEAM :

Programming & Development : Alexandra Zaïnal
Concept & original design : Baudouin d'Aumeries
Assistance for programming : Marc-Olivier Méhu
Technical & hardware support : Manuel Goepfert

Contact : metmap@orbifly.com




SOURCES & CREDITS :

   NOAA       Earth
Advisory